sensor_id;sensor_type;location;lat;lon;timestamp;P1;durP1;ratioP1;P2;durP2;ratioP2
22675;SDS011;12521;43.310;21.876;2023-11-19T00:02:28;6.0;;;6.0;;
22675;SDS011;12521;43.310;21.876;2023-11-19T00:07:04;6.0;;;6.0;;
22675;SDS011;12521;43.310;21.876;2023-11-19T00:11:41;6.0;;;6.0;;
22675;SDS011;12521;43.310;21.876;2023-11-19T00:16:17;6.0;;;6.0;;
22675;SDS011;12521;43.310;21.876;2023-11-19T00:20:53;6.0;;;6.0;;
22675;SDS011;12521;43.310;21.876;2023-11-19T00:25:29;5.0;;;5.0;;
22675;SDS011;12521;43.310;21.876;2023-11-19T00:30:07;5.0;;;5.0;;
22675;SDS011;12521;43.310;21.876;2023-11-19T00:34:44;5.0;;;4.0;;
22675;SDS011;12521;43.310;21.876;2023-11-19T00:39:20;5.0;;;4.0;;
22675;SDS011;12521;43.310;21.876;2023-11-19T00:43:56;5.0;;;4.0;;
22675;SDS011;12521;43.310;21.876;2023-11-19T00:48:33;5.0;;;4.0;;
22675;SDS011;12521;43.310;21.876;2023-11-19T00:53:09;6.0;;;6.0;;
22675;SDS011;12521;43.310;21.876;2023-11-19T00:57:46;6.0;;;6.0;;
22675;SDS011;12521;43.310;21.876;2023-11-19T01:02:22;7.0;;;7.0;;
22675;SDS011;12521;43.310;21.876;2023-11-19T01:06:58;7.0;;;7.0;;
22675;SDS011;12521;43.310;21.876;2023-11-19T01:11:35;7.0;;;7.0;;
22675;SDS011;12521;43.310;21.876;2023-11-19T01:16:11;7.0;;;5.0;;
22675;SDS011;12521;43.310;21.876;2023-11-19T01:20:47;7.0;;;5.0;;
22675;SDS011;12521;43.310;21.876;2023-11-19T01:25:24;7.0;;;3.0;;
22675;SDS011;12521;43.310;21.876;2023-11-19T01:30:00;7.0;;;3.0;;
22675;SDS011;12521;43.310;21.876;2023-11-19T01:34:37;8.0;;;4.0;;
22675;SDS011;12521;43.310;21.876;2023-11-19T01:39:13;8.0;;;4.0;;
22675;SDS011;12521;43.310;21.876;2023-11-19T01:43:49;10.0;;;5.0;;
22675;SDS011;12521;43.310;21.876;2023-11-19T01:48:25;10.0;;;5.0;;
22675;SDS011;12521;43.310;21.876;2023-11-19T01:53:03;8.0;;;4.0;;
22675;SDS011;12521;43.310;21.876;2023-11-19T01:57:39;8.0;;;4.0;;
22675;SDS011;12521;43.310;21.876;2023-11-19T02:02:17;7.0;;;4.0;;
22675;SDS011;12521;43.310;21.876;2023-11-19T02:06:58;7.0;;;4.0;;
22675;SDS011;12521;43.310;21.876;2023-11-19T02:11:35;7.0;;;4.0;;
22675;SDS011;12521;43.310;21.876;2023-11-19T02:16:15;7.0;;;5.0;;
22675;SDS011;12521;43.310;21.876;2023-11-19T02:20:52;7.0;;;5.0;;
22675;SDS011;12521;43.310;21.876;2023-11-19T02:25:33;7.0;;;6.0;;
22675;SDS011;12521;43.310;21.876;2023-11-19T02:30:14;7.0;;;6.0;;
22675;SDS011;12521;43.310;21.876;2023-11-19T02:34:50;7.0;;;6.0;;
22675;SDS011;12521;43.310;21.876;2023-11-19T02:39:27;7.0;;;6.0;;
22675;SDS011;12521;43.310;21.876;2023-11-19T02:44:04;7.0;;;5.0;;
22675;SDS011;12521;43.310;21.876;2023-11-19T02:48:42;7.0;;;5.0;;
22675;SDS011;12521;43.310;21.876;2023-11-19T02:53:18;8.0;;;6.0;;
22675;SDS011;12521;43.310;21.876;2023-11-19T02:57:54;8.0;;;6.0;;
22675;SDS011;12521;43.310;21.876;2023-11-19T03:02:31;8.0;;;7.0;;
22675;SDS011;12521;43.310;21.876;2023-11-19T03:07:07;8.0;;;7.0;;
22675;SDS011;12521;43.310;21.876;2023-11-19T03:11:43;8.0;;;7.0;;
22675;SDS011;12521;43.310;21.876;2023-11-19T03:16:19;6.0;;;6.0;;
22675;SDS011;12521;43.310;21.876;2023-11-19T03:20:55;6.0;;;6.0;;
22675;SDS011;12521;43.310;21.876;2023-11-19T03:25:32;4.0;;;4.0;;
22675;SDS011;12521;43.310;21.876;2023-11-19T03:30:09;4.0;;;4.0;;
22675;SDS011;12521;43.310;21.876;2023-11-19T03:34:47;7.0;;;5.0;;
22675;SDS011;12521;43.310;21.876;2023-11-19T03:39:23;7.0;;;5.0;;
22675;SDS011;12521;43.310;21.876;2023-11-19T03:44:00;10.0;;;6.0;;
22675;SDS011;12521;43.310;21.876;2023-11-19T03:48:36;10.0;;;6.0;;
22675;SDS011;12521;43.310;21.876;2023-11-19T03:53:12;8.0;;;6.0;;
22675;SDS011;12521;43.310;21.876;2023-11-19T03:57:49;8.0;;;6.0;;
22675;SDS011;12521;43.310;21.876;2023-11-19T04:02:25;7.0;;;5.0;;
22675;SDS011;12521;43.310;21.876;2023-11-19T04:07:01;7.0;;;5.0;;
22675;SDS011;12521;43.310;21.876;2023-11-19T04:11:39;7.0;;;5.0;;
22675;SDS011;12521;43.310;21.876;2023-11-19T04:16:15;6.0;;;4.0;;
22675;SDS011;12521;43.310;21.876;2023-11-19T04:20:51;6.0;;;4.0;;
22675;SDS011;12521;43.310;21.876;2023-11-19T04:25:28;6.0;;;4.0;;
22675;SDS011;12521;43.310;21.876;2023-11-19T04:30:06;6.0;;;4.0;;
22675;SDS011;12521;43.310;21.876;2023-11-19T04:34:44;6.0;;;4.0;;
22675;SDS011;12521;43.310;21.876;2023-11-19T04:39:20;6.0;;;4.0;;
22675;SDS011;12521;43.310;21.876;2023-11-19T04:43:57;5.0;;;4.0;;
22675;SDS011;12521;43.310;21.876;2023-11-19T04:48:33;5.0;;;4.0;;
22675;SDS011;12521;43.310;21.876;2023-11-19T04:53:10;5.0;;;4.0;;
22675;SDS011;12521;43.310;21.876;2023-11-19T04:57:47;5.0;;;4.0;;
22675;SDS011;12521;43.310;21.876;2023-11-19T05:02:24;5.0;;;4.0;;
22675;SDS011;12521;43.310;21.876;2023-11-19T05:07:01;5.0;;;4.0;;
22675;SDS011;12521;43.310;21.876;2023-11-19T05:11:37;5.0;;;4.0;;
22675;SDS011;12521;43.310;21.876;2023-11-19T05:16:14;5.0;;;4.0;;
22675;SDS011;12521;43.310;21.876;2023-11-19T05:20:50;5.0;;;4.0;;
22675;SDS011;12521;43.310;21.876;2023-11-19T05:25:26;5.0;;;4.0;;
22675;SDS011;12521;43.310;21.876;2023-11-19T05:30:05;5.0;;;4.0;;
22675;SDS011;12521;43.310;21.876;2023-11-19T05:34:43;5.0;;;4.0;;
22675;SDS011;12521;43.310;21.876;2023-11-19T05:39:19;5.0;;;4.0;;
22675;SDS011;12521;43.310;21.876;2023-11-19T05:43:55;5.0;;;5.0;;
22675;SDS011;12521;43.310;21.876;2023-11-19T05:48:31;5.0;;;5.0;;
22675;SDS011;12521;43.310;21.876;2023-11-19T05:53:08;6.0;;;5.0;;
22675;SDS011;12521;43.310;21.876;2023-11-19T05:57:45;6.0;;;5.0;;
22675;SDS011;12521;43.310;21.876;2023-11-19T06:02:21;6.0;;;5.0;;
22675;SDS011;12521;43.310;21.876;2023-11-19T06:06:58;8.0;;;5.0;;
22675;SDS011;12521;43.310;21.876;2023-11-19T06:11:34;8.0;;;5.0;;
22675;SDS011;12521;43.310;21.876;2023-11-19T06:16:11;7.0;;;5.0;;
22675;SDS011;12521;43.310;21.876;2023-11-19T06:20:48;7.0;;;5.0;;
22675;SDS011;12521;43.310;21.876;2023-11-19T06:25:24;6.0;;;5.0;;
22675;SDS011;12521;43.310;21.876;2023-11-19T06:30:01;6.0;;;5.0;;
22675;SDS011;12521;43.310;21.876;2023-11-19T06:34:41;8.0;;;6.0;;
22675;SDS011;12521;43.310;21.876;2023-11-19T06:39:17;8.0;;;6.0;;
22675;SDS011;12521;43.310;21.876;2023-11-19T06:43:54;9.0;;;6.0;;
22675;SDS011;12521;43.310;21.876;2023-11-19T06:48:30;9.0;;;6.0;;
22675;SDS011;12521;43.310;21.876;2023-11-19T06:53:07;7.0;;;6.0;;
22675;SDS011;12521;43.310;21.876;2023-11-19T06:57:44;7.0;;;6.0;;
22675;SDS011;12521;43.310;21.876;2023-11-19T07:02:20;7.0;;;6.0;;
22675;SDS011;12521;43.310;21.876;2023-11-19T07:06:56;5.0;;;5.0;;
22675;SDS011;12521;43.310;21.876;2023-11-19T07:11:33;5.0;;;5.0;;
22675;SDS011;12521;43.310;21.876;2023-11-19T07:16:09;6.0;;;6.0;;
22675;SDS011;12521;43.310;21.876;2023-11-19T07:20:46;6.0;;;6.0;;
22675;SDS011;12521;43.310;21.876;2023-11-19T07:25:22;8.0;;;7.0;;
22675;SDS011;12521;43.310;21.876;2023-11-19T07:29:59;8.0;;;7.0;;
22675;SDS011;12521;43.310;21.876;2023-11-19T07:34:35;18.0;;;16.0;;
22675;SDS011;12521;43.310;21.876;2023-11-19T07:39:12;18.0;;;16.0;;
22675;SDS011;12521;43.310;21.876;2023-11-19T07:43:48;28.0;;;24.0;;
22675;SDS011;12521;43.310;21.876;2023-11-19T07:48:25;28.0;;;24.0;;
22675;SDS011;12521;43.310;21.876;2023-11-19T07:53:02;18.0;;;16.0;;
22675;SDS011;12521;43.310;21.876;2023-11-19T07:57:38;18.0;;;16.0;;
22675;SDS011;12521;43.310;21.876;2023-11-19T08:02:14;18.0;;;16.0;;
22675;SDS011;12521;43.310;21.876;2023-11-19T08:06:51;9.0;;;8.0;;
22675;SDS011;12521;43.310;21.876;2023-11-19T08:11:27;9.0;;;8.0;;
22675;SDS011;12521;43.310;21.876;2023-11-19T08:16:04;12.0;;;9.0;;
22675;SDS011;12521;43.310;21.876;2023-11-19T08:20:42;12.0;;;9.0;;
22675;SDS011;12521;43.310;21.876;2023-11-19T08:25:19;16.0;;;10.0;;
22675;SDS011;12521;43.310;21.876;2023-11-19T08:29:55;16.0;;;10.0;;
22675;SDS011;12521;43.310;21.876;2023-11-19T08:34:31;13.0;;;10.0;;
22675;SDS011;12521;43.310;21.876;2023-11-19T08:39:08;13.0;;;10.0;;
22675;SDS011;12521;43.310;21.876;2023-11-19T08:43:44;10.0;;;9.0;;
22675;SDS011;12521;43.310;21.876;2023-11-19T08:48:21;10.0;;;9.0;;
22675;SDS011;12521;43.310;21.876;2023-11-19T08:52:58;11.0;;;9.0;;
22675;SDS011;12521;43.310;21.876;2023-11-19T08:57:34;11.0;;;9.0;;
22675;SDS011;12521;43.310;21.876;2023-11-19T09:02:10;11.0;;;9.0;;
22675;SDS011;12521;43.310;21.876;2023-11-19T09:06:47;12.0;;;9.0;;
22675;SDS011;12521;43.310;21.876;2023-11-19T09:11:24;12.0;;;9.0;;
22675;SDS011;12521;43.310;21.876;2023-11-19T09:16:00;13.0;;;9.0;;
22675;SDS011;12521;43.310;21.876;2023-11-19T09:20:36;13.0;;;9.0;;
22675;SDS011;12521;43.310;21.876;2023-11-19T09:25:13;14.0;;;9.0;;
22675;SDS011;12521;43.310;21.876;2023-11-19T09:29:49;14.0;;;9.0;;
22675;SDS011;12521;43.310;21.876;2023-11-19T09:34:25;14.0;;;10.0;;
22675;SDS011;12521;43.310;21.876;2023-11-19T09:39:02;14.0;;;10.0;;
22675;SDS011;12521;43.310;21.876;2023-11-19T09:43:39;13.0;;;10.0;;
22675;SDS011;12521;43.310;21.876;2023-11-19T09:48:19;13.0;;;10.0;;
22675;SDS011;12521;43.310;21.876;2023-11-19T09:52:55;12.0;;;9.0;;
22675;SDS011;12521;43.310;21.876;2023-11-19T09:57:33;12.0;;;9.0;;
22675;SDS011;12521;43.310;21.876;2023-11-19T10:02:17;12.0;;;9.0;;
22675;SDS011;12521;43.310;21.876;2023-11-19T10:06:54;11.0;;;8.0;;
22675;SDS011;12521;43.310;21.876;2023-11-19T10:11:31;11.0;;;8.0;;
22675;SDS011;12521;43.310;21.876;2023-11-19T10:16:09;10.0;;;7.0;;
22675;SDS011;12521;43.310;21.876;2023-11-19T10:20:49;10.0;;;7.0;;
22675;SDS011;12521;43.310;21.876;2023-11-19T10:25:27;8.0;;;6.0;;
22675;SDS011;12521;43.310;21.876;2023-11-19T10:30:07;8.0;;;6.0;;
22675;SDS011;12521;43.310;21.876;2023-11-19T10:34:48;9.0;;;6.0;;
22675;SDS011;12521;43.310;21.876;2023-11-19T10:39:51;9.0;;;6.0;;
22675;SDS011;12521;43.310;21.876;2023-11-19T10:44:32;10.0;;;7.0;;
22675;SDS011;12521;43.310;21.876;2023-11-19T10:49:10;10.0;;;7.0;;
22675;SDS011;12521;43.310;21.876;2023-11-19T10:53:47;9.0;;;6.0;;
22675;SDS011;12521;43.310;21.876;2023-11-19T10:58:28;9.0;;;6.0;;
22675;SDS011;12521;43.310;21.876;2023-11-19T11:03:17;8.0;;;6.0;;
22675;SDS011;12521;43.310;21.876;2023-11-19T11:08:01;8.0;;;6.0;;
22675;SDS011;12521;43.310;21.876;2023-11-19T11:12:42;8.0;;;6.0;;
22675;SDS011;12521;43.310;21.876;2023-11-19T11:17:25;16.0;;;12.0;;
22675;SDS011;12521;43.310;21.876;2023-11-19T11:22:09;16.0;;;12.0;;
22675;SDS011;12521;43.310;21.876;2023-11-19T11:27:14;23.0;;;19.0;;
22675;SDS011;12521;43.310;21.876;2023-11-19T11:33:02;24.0;;;18.0;;
22675;SDS011;12521;43.310;21.876;2023-11-19T11:38:37;24.0;;;18.0;;
22675;SDS011;12521;43.310;21.876;2023-11-19T11:43:49;24.0;;;17.0;;
22675;SDS011;12521;43.310;21.876;2023-11-19T11:48:30;24.0;;;17.0;;
22675;SDS011;12521;43.310;21.876;2023-11-19T11:53:17;19.0;;;14.0;;
22675;SDS011;12521;43.310;21.876;2023-11-19T11:57:59;19.0;;;14.0;;
22675;SDS011;12521;43.310;21.876;2023-11-19T12:02:36;19.0;;;14.0;;
22675;SDS011;12521;43.310;21.876;2023-11-19T12:07:16;14.0;;;10.0;;
22675;SDS011;12521;43.310;21.876;2023-11-19T12:12:12;14.0;;;10.0;;
22675;SDS011;12521;43.310;21.876;2023-11-19T12:17:03;16.0;;;12.0;;
22675;SDS011;12521;43.310;21.876;2023-11-19T12:22:19;16.0;;;12.0;;
22675;SDS011;12521;43.310;21.876;2023-11-19T12:26:55;18.0;;;14.0;;
22675;SDS011;12521;43.310;21.876;2023-11-19T12:31:31;18.0;;;14.0;;
22675;SDS011;12521;43.310;21.876;2023-11-19T12:36:09;14.0;;;12.0;;
22675;SDS011;12521;43.310;21.876;2023-11-19T12:40:45;14.0;;;12.0;;
22675;SDS011;12521;43.310;21.876;2023-11-19T12:45:23;10.0;;;9.0;;
22675;SDS011;12521;43.310;21.876;2023-11-19T12:49:59;10.0;;;9.0;;
22675;SDS011;12521;43.310;21.876;2023-11-19T12:54:36;16.0;;;14.0;;
22675;SDS011;12521;43.310;21.876;2023-11-19T12:59:13;16.0;;;14.0;;
22675;SDS011;12521;43.310;21.876;2023-11-19T13:03:49;21.0;;;18.0;;
22675;SDS011;12521;43.310;21.876;2023-11-19T13:08:25;21.0;;;18.0;;
22675;SDS011;12521;43.310;21.876;2023-11-19T13:13:04;18.0;;;16.0;;
22675;SDS011;12521;43.310;21.876;2023-11-19T13:17:47;18.0;;;16.0;;
22675;SDS011;12521;43.310;21.876;2023-11-19T13:22:23;18.0;;;16.0;;
22675;SDS011;12521;43.310;21.876;2023-11-19T13:26:59;16.0;;;13.0;;
22675;SDS011;12521;43.310;21.876;2023-11-19T13:31:36;16.0;;;13.0;;
22675;SDS011;12521;43.310;21.876;2023-11-19T13:36:13;34.0;;;26.0;;
22675;SDS011;12521;43.310;21.876;2023-11-19T13:40:50;34.0;;;26.0;;
22675;SDS011;12521;43.310;21.876;2023-11-19T13:45:27;51.0;;;39.0;;
22675;SDS011;12521;43.310;21.876;2023-11-19T13:50:04;51.0;;;39.0;;
22675;SDS011;12521;43.310;21.876;2023-11-19T13:54:41;42.0;;;34.0;;
22675;SDS011;12521;43.310;21.876;2023-11-19T13:59:17;42.0;;;34.0;;
22675;SDS011;12521;43.310;21.876;2023-11-19T14:03:54;33.0;;;28.0;;
22675;SDS011;12521;43.310;21.876;2023-11-19T14:08:30;33.0;;;28.0;;
22675;SDS011;12521;43.310;21.876;2023-11-19T14:13:06;32.0;;;26.0;;
22675;SDS011;12521;43.310;21.876;2023-11-19T14:17:43;32.0;;;26.0;;
22675;SDS011;12521;43.310;21.876;2023-11-19T14:22:21;32.0;;;26.0;;
22675;SDS011;12521;43.310;21.876;2023-11-19T14:26:57;30.0;;;25.0;;
22675;SDS011;12521;43.310;21.876;2023-11-19T14:31:34;30.0;;;25.0;;
22675;SDS011;12521;43.310;21.876;2023-11-19T14:36:10;27.0;;;23.0;;
22675;SDS011;12521;43.310;21.876;2023-11-19T14:40:46;27.0;;;23.0;;
22675;SDS011;12521;43.310;21.876;2023-11-19T14:45:22;24.0;;;21.0;;
22675;SDS011;12521;43.310;21.876;2023-11-19T14:49:59;24.0;;;21.0;;
22675;SDS011;12521;43.310;21.876;2023-11-19T14:54:35;23.0;;;20.0;;
22675;SDS011;12521;43.310;21.876;2023-11-19T14:59:11;23.0;;;20.0;;
22675;SDS011;12521;43.310;21.876;2023-11-19T15:03:47;22.0;;;18.0;;
22675;SDS011;12521;43.310;21.876;2023-11-19T15:08:23;22.0;;;18.0;;
22675;SDS011;12521;43.310;21.876;2023-11-19T15:13:00;22.0;;;18.0;;
22675;SDS011;12521;43.310;21.876;2023-11-19T15:17:36;28.0;;;25.0;;
22675;SDS011;12521;43.310;21.876;2023-11-19T15:22:13;28.0;;;25.0;;
22675;SDS011;12521;43.310;21.876;2023-11-19T15:26:49;33.0;;;32.0;;
22675;SDS011;12521;43.310;21.876;2023-11-19T15:31:26;33.0;;;32.0;;
22675;SDS011;12521;43.310;21.876;2023-11-19T15:36:03;39.0;;;32.0;;
22675;SDS011;12521;43.310;21.876;2023-11-19T15:40:43;39.0;;;32.0;;
22675;SDS011;12521;43.310;21.876;2023-11-19T15:45:19;45.0;;;32.0;;
22675;SDS011;12521;43.310;21.876;2023-11-19T15:49:56;45.0;;;32.0;;
22675;SDS011;12521;43.310;21.876;2023-11-19T15:54:32;42.0;;;34.0;;
22675;SDS011;12521;43.310;21.876;2023-11-19T15:59:09;42.0;;;34.0;;
22675;SDS011;12521;43.310;21.876;2023-11-19T16:03:45;39.0;;;35.0;;
22675;SDS011;12521;43.310;21.876;2023-11-19T16:08:21;39.0;;;35.0;;
22675;SDS011;12521;43.310;21.876;2023-11-19T16:12:58;39.0;;;35.0;;
22675;SDS011;12521;43.310;21.876;2023-11-19T16:17:34;48.0;;;40.0;;
22675;SDS011;12521;43.310;21.876;2023-11-19T16:22:10;48.0;;;40.0;;
22675;SDS011;12521;43.310;21.876;2023-11-19T16:26:46;57.0;;;45.0;;
22675;SDS011;12521;43.310;21.876;2023-11-19T16:31:22;57.0;;;45.0;;
22675;SDS011;12521;43.310;21.876;2023-11-19T16:35:59;66.0;;;54.0;;
22675;SDS011;12521;43.310;21.876;2023-11-19T16:40:35;66.0;;;54.0;;
22675;SDS011;12521;43.310;21.876;2023-11-19T16:45:12;74.0;;;64.0;;
22675;SDS011;12521;43.310;21.876;2023-11-19T16:49:48;74.0;;;64.0;;
22675;SDS011;12521;43.310;21.876;2023-11-19T16:54:25;72.0;;;60.0;;
22675;SDS011;12521;43.310;21.876;2023-11-19T16:59:01;72.0;;;60.0;;
22675;SDS011;12521;43.310;21.876;2023-11-19T17:03:37;71.0;;;55.0;;
22675;SDS011;12521;43.310;21.876;2023-11-19T17:08:14;71.0;;;55.0;;
22675;SDS011;12521;43.310;21.876;2023-11-19T17:12:50;71.0;;;55.0;;
22675;SDS011;12521;43.310;21.876;2023-11-19T17:17:27;61.0;;;48.0;;
22675;SDS011;12521;43.310;21.876;2023-11-19T17:22:03;61.0;;;48.0;;
22675;SDS011;12521;43.310;21.876;2023-11-19T17:26:39;51.0;;;42.0;;
22675;SDS011;12521;43.310;21.876;2023-11-19T17:31:16;51.0;;;42.0;;
22675;SDS011;12521;43.310;21.876;2023-11-19T17:35:52;42.0;;;33.0;;
22675;SDS011;12521;43.310;21.876;2023-11-19T17:40:28;42.0;;;33.0;;
22675;SDS011;12521;43.310;21.876;2023-11-19T17:45:05;33.0;;;24.0;;
22675;SDS011;12521;43.310;21.876;2023-11-19T17:49:41;33.0;;;24.0;;
22675;SDS011;12521;43.310;21.876;2023-11-19T17:54:18;30.0;;;24.0;;
22675;SDS011;12521;43.310;21.876;2023-11-19T17:58:54;30.0;;;24.0;;
22675;SDS011;12521;43.310;21.876;2023-11-19T18:03:31;26.0;;;23.0;;
22675;SDS011;12521;43.310;21.876;2023-11-19T18:08:07;26.0;;;23.0;;
22675;SDS011;12521;43.310;21.876;2023-11-19T18:12:44;26.0;;;23.0;;
22675;SDS011;12521;43.310;21.876;2023-11-19T18:17:21;42.0;;;32.0;;
22675;SDS011;12521;43.310;21.876;2023-11-19T18:21:58;42.0;;;32.0;;
22675;SDS011;12521;43.310;21.876;2023-11-19T18:26:35;58.0;;;42.0;;
22675;SDS011;12521;43.310;21.876;2023-11-19T18:31:11;58.0;;;42.0;;
22675;SDS011;12521;43.310;21.876;2023-11-19T18:35:48;56.0;;;43.0;;
22675;SDS011;12521;43.310;21.876;2023-11-19T18:40:25;56.0;;;43.0;;
22675;SDS011;12521;43.310;21.876;2023-11-19T18:45:02;54.0;;;44.0;;
22675;SDS011;12521;43.310;21.876;2023-11-19T18:49:41;54.0;;;44.0;;
22675;SDS011;12521;43.310;21.876;2023-11-19T18:54:17;55.0;;;44.0;;
22675;SDS011;12521;43.310;21.876;2023-11-19T18:58:53;55.0;;;44.0;;
22675;SDS011;12521;43.310;21.876;2023-11-19T19:03:29;56.0;;;45.0;;
22675;SDS011;12521;43.310;21.876;2023-11-19T19:08:05;56.0;;;45.0;;
22675;SDS011;12521;43.310;21.876;2023-11-19T19:12:41;56.0;;;45.0;;
22675;SDS011;12521;43.310;21.876;2023-11-19T19:17:18;66.0;;;57.0;;
22675;SDS011;12521;43.310;21.876;2023-11-19T19:21:54;66.0;;;57.0;;
22675;SDS011;12521;43.310;21.876;2023-11-19T19:26:31;76.0;;;69.0;;
22675;SDS011;12521;43.310;21.876;2023-11-19T19:31:07;76.0;;;69.0;;
22675;SDS011;12521;43.310;21.876;2023-11-19T19:35:43;71.0;;;64.0;;
22675;SDS011;12521;43.310;21.876;2023-11-19T19:40:20;71.0;;;64.0;;
22675;SDS011;12521;43.310;21.876;2023-11-19T19:44:56;66.0;;;58.0;;
22675;SDS011;12521;43.310;21.876;2023-11-19T19:49:32;66.0;;;58.0;;
22675;SDS011;12521;43.310;21.876;2023-11-19T19:54:09;68.0;;;60.0;;
22675;SDS011;12521;43.310;21.876;2023-11-19T19:58:45;68.0;;;60.0;;
22675;SDS011;12521;43.310;21.876;2023-11-19T20:03:22;70.0;;;61.0;;
22675;SDS011;12521;43.310;21.876;2023-11-19T20:07:58;70.0;;;61.0;;
22675;SDS011;12521;43.310;21.876;2023-11-19T20:12:35;70.0;;;61.0;;
22675;SDS011;12521;43.310;21.876;2023-11-19T20:17:11;70.0;;;56.0;;
22675;SDS011;12521;43.310;21.876;2023-11-19T20:21:47;70.0;;;56.0;;
22675;SDS011;12521;43.310;21.876;2023-11-19T20:26:24;71.0;;;51.0;;
22675;SDS011;12521;43.310;21.876;2023-11-19T20:31:00;71.0;;;51.0;;
22675;SDS011;12521;43.310;21.876;2023-11-19T20:35:36;65.0;;;46.0;;
22675;SDS011;12521;43.310;21.876;2023-11-19T20:40:12;65.0;;;46.0;;
22675;SDS011;12521;43.310;21.876;2023-11-19T20:44:49;59.0;;;42.0;;
22675;SDS011;12521;43.310;21.876;2023-11-19T20:49:25;59.0;;;42.0;;
22675;SDS011;12521;43.310;21.876;2023-11-19T20:54:01;45.0;;;35.0;;
22675;SDS011;12521;43.310;21.876;2023-11-19T20:58:38;45.0;;;35.0;;
22675;SDS011;12521;43.310;21.876;2023-11-19T21:03:14;45.0;;;35.0;;
22675;SDS011;12521;43.310;21.876;2023-11-19T21:07:50;31.0;;;28.0;;
22675;SDS011;12521;43.310;21.876;2023-11-19T21:12:26;31.0;;;28.0;;
22675;SDS011;12521;43.310;21.876;2023-11-19T21:17:03;42.0;;;34.0;;
22675;SDS011;12521;43.310;21.876;2023-11-19T21:21:39;42.0;;;34.0;;
22675;SDS011;12521;43.310;21.876;2023-11-19T21:26:15;52.0;;;39.0;;
22675;SDS011;12521;43.310;21.876;2023-11-19T21:30:54;52.0;;;39.0;;
22675;SDS011;12521;43.310;21.876;2023-11-19T21:35:30;54.0;;;42.0;;
22675;SDS011;12521;43.310;21.876;2023-11-19T21:40:08;54.0;;;42.0;;
22675;SDS011;12521;43.310;21.876;2023-11-19T21:44:46;56.0;;;46.0;;
22675;SDS011;12521;43.310;21.876;2023-11-19T21:49:22;56.0;;;46.0;;
22675;SDS011;12521;43.310;21.876;2023-11-19T21:53:58;62.0;;;50.0;;
22675;SDS011;12521;43.310;21.876;2023-11-19T21:58:34;62.0;;;50.0;;
22675;SDS011;12521;43.310;21.876;2023-11-19T22:03:10;62.0;;;50.0;;
22675;SDS011;12521;43.310;21.876;2023-11-19T22:07:47;69.0;;;55.0;;
22675;SDS011;12521;43.310;21.876;2023-11-19T22:12:23;69.0;;;55.0;;
22675;SDS011;12521;43.310;21.876;2023-11-19T22:17:00;62.0;;;48.0;;
22675;SDS011;12521;43.310;21.876;2023-11-19T22:21:36;62.0;;;48.0;;
22675;SDS011;12521;43.310;21.876;2023-11-19T22:26:13;54.0;;;41.0;;
22675;SDS011;12521;43.310;21.876;2023-11-19T22:30:49;54.0;;;41.0;;
22675;SDS011;12521;43.310;21.876;2023-11-19T22:35:25;56.0;;;42.0;;
22675;SDS011;12521;43.310;21.876;2023-11-19T22:40:02;56.0;;;42.0;;
22675;SDS011;12521;43.310;21.876;2023-11-19T22:44:44;58.0;;;44.0;;
22675;SDS011;12521;43.310;21.876;2023-11-19T22:49:20;58.0;;;44.0;;
22675;SDS011;12521;43.310;21.876;2023-11-19T22:53:56;54.0;;;43.0;;
22675;SDS011;12521;43.310;21.876;2023-11-19T22:58:32;54.0;;;43.0;;
22675;SDS011;12521;43.310;21.876;2023-11-19T23:03:08;54.0;;;43.0;;
22675;SDS011;12521;43.310;21.876;2023-11-19T23:07:45;49.0;;;42.0;;
22675;SDS011;12521;43.310;21.876;2023-11-19T23:12:21;49.0;;;42.0;;
22675;SDS011;12521;43.310;21.876;2023-11-19T23:16:57;54.0;;;44.0;;
22675;SDS011;12521;43.310;21.876;2023-11-19T23:21:33;54.0;;;44.0;;
22675;SDS011;12521;43.310;21.876;2023-11-19T23:26:11;58.0;;;45.0;;
22675;SDS011;12521;43.310;21.876;2023-11-19T23:30:48;58.0;;;45.0;;
22675;SDS011;12521;43.310;21.876;2023-11-19T23:35:25;54.0;;;42.0;;
22675;SDS011;12521;43.310;21.876;2023-11-19T23:40:02;54.0;;;42.0;;
22675;SDS011;12521;43.310;21.876;2023-11-19T23:44:43;50.0;;;40.0;;
22675;SDS011;12521;43.310;21.876;2023-11-19T23:49:19;50.0;;;40.0;;
22675;SDS011;12521;43.310;21.876;2023-11-19T23:53:56;50.0;;;40.0;;
22675;SDS011;12521;43.310;21.876;2023-11-19T23:58:32;50.0;;;40.0;;
